Time;durP1;ratioP1;P1;durP2;ratioP2;P2;SDS_P1;SDS_P2;PMS_P1;PMS_P2;Temp;Humidity;BMP_temperature;BMP_pressure;BME280_temperature;BME280_humidity;BME280_pressure;Samples;Min_cycle;Max_cycle;Signal;HPM_P1;HPM_P2
2020/12/14 00:00:11;;;;;;;8.48;2.78;;;7.00;99.90;;;;;;5073559;28;20028;-85
2020/12/14 00:02:37;;;;;;;10.77;2.83;;;7.00;99.90;;;;;;5073129;28;20031;-85
2020/12/14 00:05:04;;;;;;;9.27;2.90;;;7.00;99.90;;;;;;5055125;28;20120;-84
2020/12/14 00:07:29;;;;;;;7.03;2.67;;;7.00;99.90;;;;;;5054829;28;20032;-84
2020/12/14 00:09:55;;;;;;;9.30;2.60;;;7.00;99.90;;;;;;5054723;28;20044;-86
2020/12/14 00:12:20;;;;;;;12.25;3.10;;;7.10;99.90;;;;;;5055037;28;20450;-85
2020/12/14 00:14:46;;;;;;;10.00;2.90;;;7.10;99.90;;;;;;5054826;28;20029;-85
2020/12/14 00:17:16;;;;;;;8.05;2.47;;;7.20;99.90;;;;;;5072854;28;20046;-85
2020/12/14 00:19:41;;;;;;;12.25;3.58;;;7.10;99.90;;;;;;5054733;28;20032;-84
2020/12/14 00:22:07;;;;;;;7.85;2.90;;;7.10;99.90;;;;;;5072462;28;20375;-84
2020/12/14 00:24:32;;;;;;;6.53;3.13;;;7.20;99.90;;;;;;5054636;28;20502;-86
2020/12/14 00:26:58;;;;;;;10.45;3.05;;;7.20;99.90;;;;;;5054955;28;20033;-84
2020/12/14 00:29:23;;;;;;;7.57;2.40;;;7.20;99.90;;;;;;5054379;28;20029;-86
2020/12/14 00:31:53;;;;;;;8.30;3.40;;;7.20;99.90;;;;;;5054129;28;20566;-85
2020/12/14 00:34:20;;;;;;;9.50;3.13;;;7.30;99.90;;;;;;5054106;28;20469;-84
2020/12/14 00:36:45;;;;;;;12.23;3.78;;;7.20;99.90;;;;;;5054327;28;20107;-85
2020/12/14 00:39:11;;;;;;;8.55;2.72;;;7.30;99.90;;;;;;5054585;28;20120;-85
2020/12/14 00:41:37;;;;;;;5.80;2.40;;;7.30;99.90;;;;;;5073243;28;20041;-86
2020/12/14 00:44:03;;;;;;;6.78;2.33;;;7.30;99.90;;;;;;5072840;28;20445;-86
2020/12/14 00:46:29;;;;;;;5.95;2.08;;;7.30;99.90;;;;;;5072413;28;20086;-85
2020/12/14 00:48:54;;;;;;;9.38;2.25;;;7.30;99.90;;;;;;5054246;28;20055;-85
2020/12/14 00:51:29;;;;;;;10.48;3.38;;;7.30;99.90;;;;;;5072463;28;20059;-83
2020/12/14 00:53:56;;;;;;;6.78;2.10;;;7.30;99.90;;;;;;5075137;28;20029;-85
2020/12/14 00:56:22;;;;;;;9.52;2.53;;;7.30;99.90;;;;;;5077012;28;20055;-85
2020/12/14 00:58:47;;;;;;;11.13;2.63;;;7.40;99.90;;;;;;5058707;28;20017;-86
2020/12/14 01:01:15;;;;;;;9.23;2.22;;;7.40;99.90;;;;;;5059542;28;20452;-85
2020/12/14 01:03:41;;;;;;;7.68;1.73;;;7.40;99.90;;;;;;5059378;28;20024;-84
2020/12/14 01:06:09;;;;;;;5.25;2.10;;;7.40;99.90;;;;;;5059220;28;20660;-84
2020/12/14 01:08:34;;;;;;;6.75;2.25;;;7.40;99.80;;;;;;5076515;28;20407;-85
2020/12/14 01:11:01;;;;;;;6.13;2.20;;;7.40;99.80;;;;;;5079166;28;20032;-84
2020/12/14 01:13:27;;;;;;;7.70;2.22;;;7.40;99.90;;;;;;5065688;28;20024;-85
2020/12/14 01:15:53;;;;;;;9.02;2.47;;;7.40;99.90;;;;;;5096971;28;20021;-86
2020/12/14 01:18:19;;;;;;;7.72;2.00;;;7.40;99.90;;;;;;5078586;28;20034;-89
2020/12/14 01:20:46;;;;;;;7.72;2.60;;;7.50;99.90;;;;;;5095883;28;20065;-84
2020/12/14 01:23:12;;;;;;;9.02;2.78;;;7.50;99.90;;;;;;5080382;28;20074;-86
2020/12/14 01:25:39;;;;;;;8.00;2.03;;;7.50;99.90;;;;;;5080022;28;20032;-85
2020/12/14 01:28:06;;;;;;;6.43;2.13;;;7.40;99.90;;;;;;5077949;28;20031;-85
2020/12/14 01:30:36;;;;;;;4.90;2.08;;;7.40;99.90;;;;;;5058009;28;20510;-86
2020/12/14 01:33:01;;;;;;;7.10;2.17;;;7.50;99.90;;;;;;5075569;28;20016;-84
2020/12/14 01:35:28;;;;;;;10.35;2.38;;;7.40;99.90;;;;;;5075697;28;20091;-84
2020/12/14 01:37:54;;;;;;;6.47;1.80;;;7.50;99.90;;;;;;5075979;28;20039;-85
2020/12/14 01:40:20;;;;;;;8.60;1.80;;;7.50;99.90;;;;;;5057315;28;20055;-87
2020/12/14 01:42:48;;;;;;;7.03;2.10;;;7.50;99.90;;;;;;5075470;28;20502;-85
2020/12/14 01:45:15;;;;;;;6.55;1.98;;;7.60;99.90;;;;;;5075635;28;20068;-85
2020/12/14 01:47:42;;;;;;;8.07;3.33;;;7.50;99.90;;;;;;5075308;28;20021;-86
2020/12/14 01:50:11;;;;;;;7.80;2.50;;;7.50;99.90;;;;;;5075329;28;20052;-85
2020/12/14 01:52:39;;;;;;;8.55;2.38;;;7.60;99.90;;;;;;5057329;28;20025;-86
2020/12/14 01:55:07;;;;;;;7.13;2.55;;;7.60;99.90;;;;;;5075176;28;20056;-85
2020/12/14 01:57:32;;;;;;;5.80;2.17;;;7.50;99.90;;;;;;5057375;28;20042;-86
2020/12/14 01:59:58;;;;;;;4.30;2.20;;;7.60;99.90;;;;;;5057285;28;20119;-84
2020/12/14 02:02:25;;;;;;;6.57;1.88;;;7.60;99.90;;;;;;5074465;28;20029;-84
2020/12/14 02:04:51;;;;;;;10.35;2.30;;;7.60;99.90;;;;;;5074445;28;20425;-86
2020/12/14 02:07:16;;;;;;;5.55;2.33;;;7.60;99.90;;;;;;5056870;28;20031;-86
2020/12/14 02:09:42;;;;;;;7.00;2.15;;;7.60;99.80;;;;;;5056483;28;20401;-86
2020/12/14 02:12:08;;;;;;;9.57;2.65;;;7.70;99.90;;;;;;5056921;28;20071;-86
2020/12/14 02:14:36;;;;;;;6.78;2.28;;;7.60;99.90;;;;;;5074841;28;20032;-84
2020/12/14 02:17:06;;;;;;;9.05;2.10;;;7.70;99.80;;;;;;5074616;28;20020;-84
2020/12/14 02:19:32;;;;;;;6.70;1.98;;;7.70;99.90;;;;;;5056817;28;20035;-85
2020/12/14 02:21:58;;;;;;;8.32;2.90;;;7.70;99.90;;;;;;5074646;28;20036;-83
2020/12/14 02:24:24;;;;;;;6.18;2.10;;;7.70;99.80;;;;;;5074465;28;20029;-85
2020/12/14 02:26:50;;;;;;;6.30;2.08;;;7.70;99.90;;;;;;5056588;28;20413;-83
2020/12/14 02:29:17;;;;;;;7.65;2.60;;;7.70;99.90;;;;;;5056299;28;20040;-84
2020/12/14 02:31:43;;;;;;;4.75;2.03;;;7.80;99.90;;;;;;5074569;28;20099;-85
2020/12/14 02:34:09;;;;;;;8.18;2.10;;;7.80;99.90;;;;;;5074427;28;20553;-85
2020/12/14 02:36:36;;;;;;;5.97;2.28;;;7.80;99.90;;;;;;5074250;28;20066;-84
2020/12/14 02:39:03;;;;;;;5.82;2.03;;;7.80;99.90;;;;;;5074115;28;20103;-86
2020/12/14 02:41:29;;;;;;;5.00;1.70;;;7.80;99.90;;;;;;5074243;28;20028;-86
2020/12/14 02:43:54;;;;;;;6.93;2.30;;;7.80;99.90;;;;;;5055553;28;20042;-85
2020/12/14 02:46:20;;;;;;;7.20;2.20;;;7.80;99.90;;;;;;5055646;28;20031;-86
2020/12/14 02:48:46;;;;;;;7.88;2.53;;;7.80;99.90;;;;;;5055262;28;20451;-85
2020/12/14 02:51:16;;;;;;;5.43;1.90;;;7.70;99.90;;;;;;5054734;28;20052;-85
2020/12/14 02:53:42;;;;;;;8.73;2.70;;;7.70;99.90;;;;;;5056242;28;20070;-86
2020/12/14 02:56:07;;;;;;;8.75;1.90;;;7.60;99.90;;;;;;5074147;28;20029;-86
2020/12/14 02:58:33;;;;;;;8.95;2.60;;;7.50;99.90;;;;;;5055890;28;20021;-87
2020/12/14 03:00:59;;;;;;;7.80;2.25;;;7.40;99.90;;;;;;5055692;28;20116;-87
2020/12/14 03:03:24;;;;;;;6.22;2.40;;;7.40;99.90;;;;;;5055933;28;20413;-86
2020/12/14 03:05:50;;;;;;;7.70;2.33;;;7.40;99.90;;;;;;5055827;28;20028;-86
2020/12/14 03:08:16;;;;;;;7.45;2.30;;;7.30;99.90;;;;;;5073798;28;20072;-86
2020/12/14 03:10:41;;;;;;;4.97;2.50;;;7.30;99.90;;;;;;5073862;28;20389;-86
2020/12/14 03:13:07;;;;;;;6.90;2.67;;;7.30;99.90;;;;;;5073690;28;20031;-86
2020/12/14 03:15:33;;;;;;;3.47;2.03;;;7.30;99.90;;;;;;5055566;28;20127;-86
2020/12/14 03:17:59;;;;;;;7.45;2.70;;;7.30;99.90;;;;;;5056026;28;20082;-86
2020/12/14 03:20:24;;;;;;;5.75;2.47;;;7.40;99.90;;;;;;5056295;28;20019;-86
2020/12/14 03:22:50;;;;;;;6.50;2.30;;;7.30;99.90;;;;;;5055752;28;20028;-85
2020/12/14 03:25:15;;;;;;;7.63;3.08;;;7.40;99.90;;;;;;5074443;28;20028;-84
2020/12/14 03:27:41;;;;;;;7.45;2.60;;;7.40;99.90;;;;;;5073224;28;20099;-84
2020/12/14 03:30:06;;;;;;;5.25;2.55;;;7.40;99.90;;;;;;5073292;28;20512;-84
2020/12/14 03:32:32;;;;;;;6.38;2.63;;;7.40;99.90;;;;;;5073523;28;20020;-85
2020/12/14 03:34:58;;;;;;;5.53;2.38;;;7.40;99.90;;;;;;5055643;28;20051;-85
2020/12/14 03:37:27;;;;;;;6.38;2.33;;;7.40;99.90;;;;;;5073055;28;20512;-84
2020/12/14 03:39:52;;;;;;;7.53;3.00;;;7.30;99.90;;;;;;5073048;28;20074;-86
2020/12/14 03:42:18;;;;;;;7.63;3.40;;;7.20;99.90;;;;;;5055138;28;20413;-83
2020/12/14 03:44:43;;;;;;;5.88;3.08;;;7.20;99.90;;;;;;5055358;28;20021;-84
2020/12/14 03:47:09;;;;;;;7.30;4.13;;;7.10;99.90;;;;;;5072847;28;20090;-84
2020/12/14 03:49:35;;;;;;;5.75;3.03;;;7.10;99.90;;;;;;5055129;28;20032;-86
2020/12/14 03:52:01;;;;;;;8.93;3.42;;;7.10;99.90;;;;;;5073324;28;20079;-85
2020/12/14 03:54:26;;;;;;;8.73;2.90;;;7.10;99.90;;;;;;5072693;28;20025;-85
2020/12/14 03:56:55;;;;;;;6.85;2.72;;;7.10;99.90;;;;;;5072905;28;20477;-85
2020/12/14 03:59:20;;;;;;;6.95;2.90;;;7.00;99.90;;;;;;5072822;28;20020;-85
2020/12/14 04:01:46;;;;;;;7.38;3.40;;;7.00;99.90;;;;;;5055035;28;20032;-85
2020/12/14 04:04:12;;;;;;;9.63;3.92;;;7.00;99.90;;;;;;5054919;28;20103;-85
2020/12/14 04:06:37;;;;;;;7.80;3.63;;;7.00;99.90;;;;;;5073078;28;20035;-85
2020/12/14 04:09:03;;;;;;;4.95;3.22;;;7.10;99.90;;;;;;5054503;28;20439;-84
2020/12/14 04:11:28;;;;;;;8.63;3.70;;;7.10;99.90;;;;;;5054982;28;20032;-84
2020/12/14 04:13:54;;;;;;;9.05;4.40;;;7.00;99.90;;;;;;5055045;28;20024;-84
2020/12/14 04:16:19;;;;;;;8.73;4.30;;;7.10;99.90;;;;;;5054903;28;20021;-85
2020/12/14 04:18:45;;;;;;;10.70;4.63;;;7.10;99.90;;;;;;5073246;28;20024;-85
2020/12/14 04:21:10;;;;;;;11.02;4.05;;;7.10;99.90;;;;;;5054865;28;20150;-84
2020/12/14 04:23:37;;;;;;;12.82;4.45;;;7.10;99.90;;;;;;5054901;28;20049;-85
2020/12/14 04:26:03;;;;;;;9.25;4.97;;;7.10;99.90;;;;;;5073027;28;20012;-86
2020/12/14 04:28:29;;;;;;;6.50;4.00;;;7.10;99.90;;;;;;5057910;28;20033;-85
2020/12/14 04:30:54;;;;;;;9.85;4.65;;;7.10;99.90;;;;;;5059060;28;20159;-85
2020/12/14 04:33:20;;;;;;;8.05;4.97;;;7.20;99.90;;;;;;5076697;28;20066;-85
2020/12/14 04:35:46;;;;;;;9.23;4.82;;;7.20;99.90;;;;;;5058623;28;20067;-84
2020/12/14 04:38:11;;;;;;;12.45;4.85;;;7.20;99.90;;;;;;5058277;28;20470;-83
2020/12/14 04:40:37;;;;;;;7.93;4.10;;;7.20;99.90;;;;;;5058774;28;20466;-83
2020/12/14 04:43:05;;;;;;;10.80;4.53;;;7.20;99.90;;;;;;5076563;28;20042;-83
2020/12/14 04:45:31;;;;;;;6.63;3.95;;;7.20;99.90;;;;;;5058259;28;20021;-83
2020/12/14 04:47:58;;;;;;;9.77;4.43;;;7.20;99.90;;;;;;5058472;28;20116;-85
2020/12/14 04:50:25;;;;;;;7.00;4.03;;;7.20;99.90;;;;;;5076439;28;20033;-84
2020/12/14 04:52:52;;;;;;;8.93;4.43;;;7.30;99.90;;;;;;5076272;28;20030;-83
2020/12/14 04:55:22;;;;;;;5.75;3.70;;;7.20;99.90;;;;;;5076483;28;20063;-85
2020/12/14 04:57:48;;;;;;;7.93;4.65;;;7.30;99.90;;;;;;5058283;28;20082;-84
2020/12/14 05:00:15;;;;;;;9.65;5.32;;;7.30;99.90;;;;;;5075925;28;20048;-84
2020/12/14 05:02:41;;;;;;;8.98;4.20;;;7.30;99.90;;;;;;5076227;28;20042;-84
2020/12/14 05:05:11;;;;;;;9.85;5.10;;;7.30;99.90;;;;;;5076195;28;20558;-83
2020/12/14 05:07:38;;;;;;;8.48;4.53;;;7.30;99.90;;;;;;5075667;28;20494;-85
2020/12/14 05:10:04;;;;;;;7.03;3.72;;;7.30;99.90;;;;;;5075902;28;20055;-84
2020/12/14 05:12:30;;;;;;;9.55;4.95;;;7.30;99.90;;;;;;5058108;28;20475;-83
2020/12/14 05:14:55;;;;;;;7.82;4.28;;;7.30;99.90;;;;;;5075716;28;20053;-84
2020/12/14 05:17:25;;;;;;;6.72;4.10;;;7.30;99.90;;;;;;5057653;28;20021;-84
2020/12/14 05:19:51;;;;;;;6.95;4.40;;;7.30;99.90;;;;;;5057876;28;20029;-84
2020/12/14 05:22:17;;;;;;;8.20;4.75;;;7.30;99.90;;;;;;5075640;28;20036;-85
2020/12/14 05:24:50;;;;;;;7.97;4.63;;;7.30;99.90;;;;;;5075828;28;20021;-85
2020/12/14 05:27:30;;;;;;;6.13;4.63;;;7.30;99.90;;;;;;5057600;28;20036;-85
2020/12/14 05:29:56;;;;;;;5.72;4.20;;;7.30;99.90;;;;;;5057203;28;20659;-85
2020/12/14 05:32:23;;;;;;;9.20;5.00;;;7.30;99.90;;;;;;5057392;28;20379;-86
2020/12/14 05:34:49;;;;;;;8.20;4.68;;;7.30;99.90;;;;;;5057614;28;20478;-84
2020/12/14 05:37:16;;;;;;;7.90;4.28;;;7.40;99.90;;;;;;5057460;28;20028;-84
2020/12/14 05:39:42;;;;;;;7.35;4.55;;;7.40;99.90;;;;;;5056842;28;20016;-84
2020/12/14 05:42:15;;;;;;;9.57;4.80;;;7.40;99.90;;;;;;5075497;28;20429;-85
2020/12/14 05:44:43;;;;;;;7.72;5.28;;;7.40;99.90;;;;;;5057456;28;20047;-85
2020/12/14 05:47:30;;;;;;;7.57;5.22;;;7.40;99.90;;;;;;5057131;28;20070;-86
2020/12/14 05:49:57;;;;;;;8.45;4.70;;;7.40;99.90;;;;;;5057546;28;20067;-86
2020/12/14 05:52:30;;;;;;;7.63;4.70;;;7.40;99.90;;;;;;5075569;28;20533;-85
2020/12/14 05:54:59;;;;;;;6.68;4.68;;;7.40;99.90;;;;;;5075540;28;20428;-85
2020/12/14 05:57:35;;;;;;;8.73;4.93;;;7.40;99.90;;;;;;5075378;28;20051;-86
2020/12/14 06:00:05;;;;;;;7.65;5.30;;;7.40;99.90;;;;;;5057378;28;20017;-85
2020/12/14 06:02:31;;;;;;;10.40;5.00;;;7.40;99.90;;;;;;5075069;28;20073;-85
2020/12/14 06:04:58;;;;;;;8.38;4.55;;;7.40;99.90;;;;;;5057153;28;20418;-85
2020/12/14 06:07:27;;;;;;;5.45;4.18;;;7.40;99.90;;;;;;5075267;28;20082;-86
2020/12/14 06:10:05;;;;;;;6.30;4.35;;;7.40;99.90;;;;;;5056755;28;20076;-86
2020/12/14 06:12:32;;;;;;;6.50;4.70;;;7.40;99.90;;;;;;5073797;28;20075;-86
2020/12/14 06:15:00;;;;;;;6.30;4.78;;;7.40;99.90;;;;;;5054702;28;20029;-86
2020/12/14 06:17:28;;;;;;;9.82;5.43;;;7.40;99.90;;;;;;5054734;28;20389;-86
2020/12/14 06:20:17;;;;;;;9.77;6.43;;;7.50;99.90;;;;;;5056523;28;20028;-87
2020/12/14 06:23:02;;;;;;;9.70;6.35;;;7.50;99.90;;;;;;5063421;28;20017;-88
2020/12/14 06:25:28;;;;;;;7.32;5.97;;;7.50;99.90;;;;;;5076593;28;20021;-87
2020/12/14 06:27:54;;;;;;;8.23;5.47;;;7.60;99.90;;;;;;5098810;28;20044;-87
2020/12/14 06:30:32;;;;;;;9.63;5.20;;;7.60;99.90;;;;;;5086644;28;20324;-87
2020/12/14 06:32:59;;;;;;;6.45;4.57;;;7.60;99.90;;;;;;5078251;28;20049;-87
2020/12/14 06:35:53;;;;;;;8.35;5.55;;;7.60;99.90;;;;;;5057919;28;20024;-86
2020/12/14 06:38:38;;;;;;;;;;;7.60;99.90;;;;;;5058314;28;20470;-87
2020/12/14 06:41:16;;;;;;;;;;;7.60;99.90;;;;;;5057675;28;19904;-87
2020/12/14 06:43:47;;;;;;;7.55;5.38;;;7.60;99.90;;;;;;5074791;28;19911;-88
2020/12/14 06:46:13;;;;;;;8.60;4.97;;;7.60;99.90;;;;;;5057075;28;20024;-87
2020/12/14 06:48:41;;;;;;;6.70;5.40;;;7.60;99.90;;;;;;5056970;28;20393;-87
2020/12/14 06:51:09;;;;;;;9.82;5.70;;;7.60;99.90;;;;;;5075048;28;20095;-88
2020/12/14 06:53:43;;;;;;;10.43;5.40;;;7.60;99.90;;;;;;5075067;28;20020;-87
2020/12/14 06:56:10;;;;;;;11.52;6.70;;;7.60;99.90;;;;;;5057037;28;20490;-88
2020/12/14 06:58:42;;;;;;;11.30;6.68;;;7.60;99.90;;;;;;5056683;28;20017;-87
2020/12/14 07:01:32;;;;;;;7.70;5.32;;;7.60;99.90;;;;;;5057527;28;20048;-90
2020/12/14 07:03:59;;;;;;;9.10;6.53;;;7.60;99.90;;;;;;5058147;28;20028;-91
2020/12/14 07:06:26;;;;;;;9.40;6.43;;;7.60;99.90;;;;;;5078587;28;20020;-87
2020/12/14 07:08:52;;;;;;;9.90;7.72;;;7.60;99.90;;;;;;5058925;28;20103;-89
2020/12/14 07:11:20;;;;;;;10.30;7.15;;;7.60;99.90;;;;;;5058303;28;20036;-90
2020/12/14 07:13:46;;;;;;;9.43;6.78;;;7.70;99.90;;;;;;5076139;28;20016;-89
2020/12/14 07:16:13;;;;;;;12.20;8.07;;;7.70;99.90;;;;;;5061726;28;20504;-89
2020/12/14 07:18:41;;;;;;;12.95;8.85;;;7.70;99.90;;;;;;5059729;28;20021;-87
2020/12/14 07:21:15;;;;;;;13.38;7.82;;;7.70;99.90;;;;;;5057078;28;20032;-89
2020/12/14 07:23:43;;;;;;;12.32;7.72;;;7.70;99.90;;;;;;5056231;28;20135;-88
2020/12/14 07:26:11;;;;;;;12.40;7.85;;;7.70;99.90;;;;;;5074180;28;20029;-89
2020/12/14 07:28:39;;;;;;;11.77;7.93;;;7.70;99.90;;;;;;5056154;28;20528;-88
2020/12/14 07:31:16;;;;;;;12.25;7.72;;;7.70;99.90;;;;;;5075105;28;20112;-90
2020/12/14 07:33:50;;;;;;;8.88;7.05;;;7.70;99.90;;;;;;5056243;28;20021;-88
2020/12/14 07:36:16;;;;;;;11.82;8.10;;;7.70;99.90;;;;;;5057196;28;20028;-89
2020/12/14 07:38:50;;;;;;;10.55;7.32;;;7.70;99.90;;;;;;5055905;28;20070;-89
2020/12/14 07:41:16;;;;;;;12.07;7.88;;;7.70;99.90;;;;;;5067498;28;20166;-89
2020/12/14 07:43:54;;;;;;;10.65;7.65;;;7.60;99.90;;;;;;5056343;28;20066;-89
2020/12/14 07:46:30;;;;;;;12.45;7.72;;;7.60;99.90;;;;;;5073953;28;20024;-90
2020/12/14 07:49:09;;;;;;;9.63;7.35;;;7.60;99.90;;;;;;5056366;28;20089;-89
2020/12/14 07:51:37;;;;;;;12.30;8.35;;;7.60;99.90;;;;;;5073991;28;20039;-89
2020/12/14 07:54:06;;;;;;;16.73;9.43;;;7.70;99.90;;;;;;5056248;28;20020;-89
2020/12/14 07:56:38;;;;;;;11.80;8.05;;;7.70;99.90;;;;;;5056391;28;20028;-88
2020/12/14 07:59:03;;;;;;;10.65;8.80;;;7.70;99.90;;;;;;5074531;28;20020;-89
2020/12/14 08:01:29;;;;;;;17.17;12.98;;;7.80;99.90;;;;;;5056815;28;20059;-88
2020/12/14 08:04:01;;;;;;;14.30;10.93;;;7.80;99.90;;;;;;5055051;28;20539;-87
2020/12/14 08:06:27;;;;;;;15.00;10.23;;;7.90;99.90;;;;;;5055472;28;20013;-86
2020/12/14 08:08:52;;;;;;;15.43;12.00;;;7.90;99.90;;;;;;5061473;28;20041;-89
2020/12/14 08:11:20;;;;;;;13.52;11.77;;;8.10;99.90;;;;;;5080082;28;20032;-87
2020/12/14 08:13:51;;;;;;;15.85;13.25;;;8.10;99.90;;;;;;5063536;28;20048;-86
2020/12/14 08:16:20;;;;;;;16.45;13.32;;;8.10;99.90;;;;;;5058129;28;20025;-85
2020/12/14 08:18:48;;;;;;;15.68;12.35;;;8.20;99.90;;;;;;5075447;28;20025;-87
2020/12/14 08:21:25;;;;;;;15.90;12.50;;;8.20;99.90;;;;;;5056575;28;20463;-86
2020/12/14 08:23:53;;;;;;;18.80;13.65;;;8.20;99.90;;;;;;5056027;28;20059;-87
2020/12/14 08:26:39;;;;;;;13.77;11.13;;;8.20;99.90;;;;;;5037089;28;20024;-86
2020/12/14 08:29:05;;;;;;;15.85;12.43;;;8.30;99.90;;;;;;5055727;28;20059;-88
2020/12/14 08:31:31;;;;;;;17.35;12.93;;;8.30;99.90;;;;;;5052345;28;20028;-88
2020/12/14 08:33:57;;;;;;;15.95;13.93;;;8.30;99.90;;;;;;5061223;28;20402;-89
2020/12/14 08:36:25;;;;;;;15.82;13.43;;;8.40;99.90;;;;;;5045366;28;20044;-86
2020/12/14 08:38:51;;;;;;;16.70;12.90;;;8.40;99.90;;;;;;5052705;28;20055;-86
2020/12/14 08:41:22;;;;;;;16.30;12.80;;;8.40;99.90;;;;;;5052853;28;20032;-87
2020/12/14 08:43:49;;;;;;;18.98;13.48;;;8.40;99.90;;;;;;5053572;28;20020;-85
2020/12/14 08:46:17;;;;;;;15.40;12.02;;;8.40;99.90;;;;;;5046585;28;20074;-86
2020/12/14 08:49:02;;;;;;;16.17;13.52;;;8.50;99.90;;;;;;5045715;28;20471;-85
2020/12/14 08:51:33;;;;;;;14.73;12.52;;;8.50;99.90;;;;;;5037682;28;20033;-86
2020/12/14 08:54:16;;;;;;;14.25;12.32;;;8.50;99.90;;;;;;5048420;28;20056;-85
2020/12/14 08:56:43;;;;;;;15.57;12.80;;;8.60;99.90;;;;;;5061563;28;20025;-86
2020/12/14 08:59:16;;;;;;;13.95;12.32;;;8.60;99.90;;;;;;5059542;28;20088;-83
2020/12/14 09:02:00;;;;;;;20.27;15.75;;;8.60;99.90;;;;;;5058495;28;20054;-83
2020/12/14 09:04:31;;;;;;;18.17;14.90;;;8.60;99.90;;;;;;5043135;28;20386;-84
2020/12/14 09:06:57;;;;;;;15.27;13.00;;;8.70;99.90;;;;;;5062164;28;20024;-83
2020/12/14 09:09:37;;;;;;;13.40;11.60;;;8.70;99.90;;;;;;5071845;28;20113;-83
2020/12/14 09:12:09;;;;;;;13.75;11.85;;;8.80;99.90;;;;;;5083783;28;20020;-84
2020/12/14 09:14:35;;;;;;;15.63;13.35;;;8.80;99.90;;;;;;5073128;28;20032;-83
2020/12/14 09:17:04;;;;;;;16.73;12.80;;;8.80;99.90;;;;;;5075300;28;20020;-85
2020/12/14 09:19:33;;;;;;;13.35;11.95;;;8.90;99.90;;;;;;5074891;28;20074;-85
2020/12/14 09:21:59;;;;;;;13.27;11.88;;;9.00;99.90;;;;;;5073692;28;20027;-85
2020/12/14 09:24:27;;;;;;;12.82;11.32;;;9.00;99.90;;;;;;5074978;28;20051;-84
2020/12/14 09:27:02;;;;;;;13.27;9.98;;;9.00;99.90;;;;;;5075076;28;20033;-85
2020/12/14 09:29:29;;;;;;;12.48;11.18;;;9.10;99.90;;;;;;5073073;28;20312;-86
2020/12/14 09:31:56;;;;;;;12.50;11.20;;;9.20;99.90;;;;;;5093154;28;20032;-85
2020/12/14 09:34:25;;;;;;;12.45;10.07;;;9.30;99.90;;;;;;5087067;28;20012;-90
2020/12/14 09:36:52;;;;;;;11.82;10.63;;;9.30;99.90;;;;;;5083187;28;20028;-88
2020/12/14 09:39:18;;;;;;;13.35;11.00;;;9.30;99.90;;;;;;5081981;28;20028;-88
2020/12/14 09:41:44;;;;;;;10.82;9.73;;;9.40;99.90;;;;;;5080214;28;20031;-89
2020/12/14 09:44:10;;;;;;;10.95;9.45;;;9.40;99.90;;;;;;5082136;28;20114;-90
2020/12/14 09:46:45;;;;;;;11.75;9.77;;;9.40;99.90;;;;;;5081533;28;20088;-90
2020/12/14 09:49:10;;;;;;;10.40;9.38;;;9.40;99.90;;;;;;5081978;28;20032;-87
2020/12/14 09:51:36;;;;;;;8.85;7.95;;;9.50;99.90;;;;;;5081805;28;20042;-91
2020/12/14 09:54:04;;;;;;;9.55;8.02;;;9.50;99.90;;;;;;5101540;28;20024;-89
2020/12/14 09:56:44;;;;;;;10.13;8.98;;;9.50;99.90;;;;;;5082854;28;20016;-94
2020/12/14 09:59:10;;;;;;;9.43;8.18;;;9.60;99.90;;;;;;5081363;28;20024;-92
2020/12/14 10:01:38;;;;;;;9.73;8.73;;;9.60;99.90;;;;;;5083744;28;20053;-89
2020/12/14 10:04:04;;;;;;;9.20;7.75;;;9.70;99.90;;;;;;5088978;28;20332;-89
2020/12/14 10:06:30;;;;;;;9.50;7.93;;;9.70;99.90;;;;;;5089050;28;20250;-89
2020/12/14 10:08:56;;;;;;;7.53;6.72;;;9.70;99.90;;;;;;5106402;28;20286;-89
2020/12/14 10:11:27;;;;;;;8.27;6.82;;;9.80;99.90;;;;;;5108032;28;20292;-89
2020/12/14 10:13:53;;;;;;;8.52;6.97;;;9.80;99.90;;;;;;5091172;28;20027;-89
2020/12/14 10:16:26;;;;;;;6.60;5.90;;;9.80;99.90;;;;;;5083437;28;20020;-92
2020/12/14 10:18:52;;;;;;;6.20;5.60;;;9.80;99.90;;;;;;5068354;28;20450;-94
2020/12/14 10:21:19;;;;;;;9.68;6.30;;;9.90;99.90;;;;;;5087253;28;20020;-90
2020/12/14 10:23:45;;;;;;;6.68;6.07;;;9.90;99.90;;;;;;5074586;28;20030;-90
2020/12/14 10:26:13;;;;;;;6.68;5.97;;;10.00;99.90;;;;;;5078766;28;20056;-90
2020/12/14 10:28:39;;;;;;;6.63;5.35;;;10.00;99.90;;;;;;5088955;28;20027;-90
2020/12/14 10:31:06;;;;;;;7.68;6.00;;;10.00;99.90;;;;;;5076650;28;20020;-88
2020/12/14 10:33:32;;;;;;;7.20;5.93;;;10.10;99.90;;;;;;5091726;28;20046;-88
2020/12/14 10:36:05;;;;;;;6.72;6.03;;;10.10;99.90;;;;;;5092611;28;20055;-89
2020/12/14 10:38:30;;;;;;;8.05;6.18;;;10.20;99.90;;;;;;5091675;28;20019;-90
2020/12/14 10:40:56;;;;;;;5.82;5.10;;;10.20;99.90;;;;;;5073468;28;20039;-84
2020/12/14 10:43:21;;;;;;;6.68;5.57;;;10.30;99.90;;;;;;5108282;28;20063;-89
2020/12/14 10:45:47;;;;;;;6.45;4.90;;;10.30;99.90;;;;;;5092376;28;20023;-91
2020/12/14 10:48:13;;;;;;;8.02;5.57;;;10.30;99.90;;;;;;5095588;28;20036;-90
2020/12/14 10:50:39;;;;;;;5.88;5.13;;;10.40;99.90;;;;;;5102437;28;20032;-90
2020/12/14 10:53:07;;;;;;;6.78;5.28;;;10.40;99.90;;;;;;5102344;28;20044;-91
2020/12/14 10:55:32;;;;;;;6.47;5.05;;;10.40;99.90;;;;;;5097354;28;20008;-89
2020/12/14 10:57:58;;;;;;;6.00;5.25;;;10.40;99.90;;;;;;5090609;28;20020;-88
2020/12/14 11:00:24;;;;;;;5.88;4.95;;;10.40;99.90;;;;;;5090909;28;20046;-88
2020/12/14 11:02:56;;;;;;;5.88;5.18;;;10.40;99.90;;;;;;5084589;28;20442;-90
2020/12/14 11:05:22;;;;;;;6.55;5.40;;;10.40;99.90;;;;;;5083942;28;20027;-89
2020/12/14 11:07:48;;;;;;;6.38;5.13;;;10.50;99.90;;;;;;5068090;28;20032;-89
2020/12/14 11:10:14;;;;;;;5.97;5.15;;;10.50;99.90;;;;;;5064375;28;20044;-89
2020/12/14 11:12:40;;;;;;;6.70;5.22;;;10.50;99.90;;;;;;5066433;28;20020;-90
2020/12/14 11:15:07;;;;;;;7.70;4.88;;;10.50;99.90;;;;;;5067509;28;20028;-90
2020/12/14 11:22:46;;;;;;;6.28;5.00;;;10.50;99.90;;;;;;5024609;28;20137;-91
2020/12/14 11:25:11;;;;;;;6.30;5.55;;;10.50;99.90;;;;;;5005225;28;20053;-90
2020/12/14 11:27:37;;;;;;;6.82;5.63;;;10.50;99.90;;;;;;4996957;28;20018;-91
2020/12/14 11:30:04;;;;;;;6.00;5.00;;;10.50;99.90;;;;;;4998764;28;20036;-91
2020/12/14 11:32:30;;;;;;;5.93;5.32;;;10.50;99.90;;;;;;5000674;28;20034;-91
2020/12/14 11:34:56;;;;;;;6.53;4.95;;;10.40;99.90;;;;;;5020386;28;20025;-88
2020/12/14 11:37:21;;;;;;;5.78;5.18;;;10.40;99.90;;;;;;5020557;28;20029;-90
2020/12/14 11:39:47;;;;;;;6.78;5.55;;;10.40;99.90;;;;;;4999564;28;20021;-92
2020/12/14 11:42:13;;;;;;;6.10;5.50;;;10.40;99.90;;;;;;4999969;28;20076;-88
2020/12/14 11:44:38;;;;;;;6.32;5.10;;;10.40;99.90;;;;;;5000939;28;20018;-88
2020/12/14 11:47:04;;;;;;;6.43;5.60;;;10.40;99.90;;;;;;5002596;28;20121;-89
2020/12/14 11:49:29;;;;;;;6.32;5.72;;;10.40;99.90;;;;;;5001214;28;20029;-89
2020/12/14 11:51:55;;;;;;;8.98;5.65;;;10.40;99.90;;;;;;5000658;28;20042;-88
2020/12/14 11:54:21;;;;;;;7.55;5.68;;;10.40;99.90;;;;;;5000139;28;20026;-88
2020/12/14 11:56:47;;;;;;;7.28;6.55;;;10.40;99.90;;;;;;4998946;28;20383;-92
2020/12/14 11:59:13;;;;;;;7.03;5.88;;;10.40;99.90;;;;;;5000951;28;20026;-86
2020/12/14 12:01:39;;;;;;;6.38;5.78;;;10.40;99.90;;;;;;5007758;28;20030;-88
2020/12/14 12:04:05;;;;;;;8.30;5.35;;;10.40;99.90;;;;;;5014246;28;20636;-85
2020/12/14 12:06:31;;;;;;;6.68;5.95;;;10.50;99.90;;;;;;5012239;28;20058;-87
2020/12/14 12:08:57;;;;;;;7.85;6.50;;;10.40;99.90;;;;;;5001219;28;20048;-88
2020/12/14 12:11:23;;;;;;;6.97;6.28;;;10.40;99.90;;;;;;5003327;28;20495;-86
2020/12/14 12:13:50;;;;;;;8.93;6.82;;;10.50;99.90;;;;;;5008440;28;20031;-90
2020/12/14 12:16:16;;;;;;;6.50;5.75;;;10.50;99.90;;;;;;5013316;28;20050;-87
2020/12/14 12:18:43;;;;;;;6.53;5.78;;;10.50;99.90;;;;;;5006165;28;20022;-90
2020/12/14 12:21:09;;;;;;;6.38;5.75;;;10.50;99.90;;;;;;5000579;28;20115;-94
2020/12/14 12:23:41;;;;;;;7.10;6.40;;;10.50;99.90;;;;;;4989274;28;20053;-94
2020/12/14 12:26:09;;;;;;;7.60;6.47;;;10.50;99.90;;;;;;4988280;28;20022;-92
2020/12/14 12:28:56;;;;;;;9.18;7.47;;;10.60;99.90;;;;;;5001534;28;20038;-91
2020/12/14 12:31:22;;;;;;;7.30;6.53;;;10.60;99.90;;;;;;5000657;28;20027;-92
2020/12/14 12:33:48;;;;;;;8.45;6.13;;;10.60;99.90;;;;;;5001362;28;20522;-89
2020/12/14 12:36:13;;;;;;;6.30;5.70;;;10.60;99.90;;;;;;4996732;28;20023;-89
2020/12/14 12:38:40;;;;;;;7.10;6.40;;;10.70;99.90;;;;;;4982081;28;20041;-87
2020/12/14 12:41:05;;;;;;;8.52;6.38;;;10.70;99.90;;;;;;4978178;28;20078;-92
2020/12/14 12:43:31;;;;;;;6.40;5.75;;;10.90;99.90;;;;;;4996135;28;20026;-91
2020/12/14 12:45:57;;;;;;;6.40;5.80;;;11.00;99.90;;;;;;4996636;28;20049;-91
2020/12/14 12:48:23;;;;;;;5.72;5.13;;;11.10;99.90;;;;;;5000758;28;20018;-91
2020/12/14 12:50:58;;;;;;;7.13;5.57;;;11.30;99.90;;;;;;5004458;28;20031;-90
2020/12/14 12:53:25;;;;;;;8.05;5.13;;;11.40;99.90;;;;;;4996010;28;20479;-88
2020/12/14 12:55:53;;;;;;;8.43;4.65;;;11.40;99.90;;;;;;4996841;28;20037;-90
2020/12/14 12:58:20;;;;;;;5.50;4.53;;;11.50;99.90;;;;;;4987805;28;20113;-90